createdAt,value
2023-04-11T00:04:06.225Z,8.07
2023-04-11T00:09:11.486Z,7.82
2023-04-11T00:14:16.021Z,7.82
2023-04-11T00:19:18.354Z,7.67
2023-04-11T00:24:20.685Z,7.61
2023-04-11T00:29:23.043Z,7.51
2023-04-11T00:34:25.887Z,7.44
2023-04-11T00:39:31.098Z,7.36
2023-04-11T00:44:35.641Z,7.40
2023-04-11T00:49:39.148Z,7.50
2023-04-11T00:54:41.579Z,7.38
2023-04-11T00:59:44.846Z,7.24
2023-04-11T01:04:48.251Z,7.34
2023-04-11T01:09:53.725Z,7.36
2023-04-11T01:14:56.811Z,7.35
2023-04-11T01:20:01.182Z,7.36
2023-04-11T01:25:06.120Z,7.39
2023-04-11T01:30:09.393Z,7.41
2023-04-11T01:35:14.539Z,7.32
2023-04-11T01:40:18.934Z,7.37
2023-04-11T01:45:24.013Z,7.38
2023-04-11T01:50:26.361Z,6.83
2023-04-11T01:55:28.823Z,7.40
2023-04-11T02:00:32.728Z,7.22
2023-04-11T02:05:35.018Z,7.44
2023-04-11T02:10:38.544Z,7.49
2023-04-11T02:15:41.294Z,7.49
2023-04-11T02:20:43.850Z,7.40
2023-04-11T02:25:46.370Z,7.30
2023-04-11T02:30:49.970Z,7.24
2023-04-11T02:35:54.578Z,7.22
2023-04-11T02:40:57.443Z,7.34
2023-04-11T02:46:11.510Z,7.44
2023-04-11T02:51:17.263Z,7.22
2023-04-11T02:56:20.177Z,7.50
2023-04-11T03:01:27.698Z,7.29
2023-04-11T03:06:31.274Z,7.51
2023-04-11T03:11:37.656Z,7.56
2023-04-11T03:16:41.482Z,7.55
2023-04-11T03:21:44.498Z,7.66
2023-04-11T03:26:48.012Z,7.96
2023-04-11T03:31:52.584Z,8.03
2023-04-11T03:36:55.403Z,8.02
2023-04-11T03:41:59.533Z,8.24
2023-04-11T03:47:02.565Z,8.31
2023-04-11T03:52:15.652Z,8.63
2023-04-11T03:57:18.808Z,8.94
2023-04-11T04:02:22.081Z,9.35
2023-04-11T04:07:28.148Z,9.78
2023-04-11T04:12:40.794Z,10.32
2023-04-11T04:17:53.247Z,10.96
2023-04-11T04:23:14.539Z,11.62
2023-04-11T04:28:46.292Z,12.76
2023-04-11T04:33:58.788Z,14.27
2023-04-11T04:39:02.344Z,15.62
2023-04-11T04:44:12.124Z,16.51
2023-04-11T04:49:21.500Z,16.75
2023-04-11T04:54:25.015Z,16.73
2023-04-11T04:59:29.946Z,16.57
2023-04-11T05:04:42.293Z,17.37
2023-04-11T05:09:46.522Z,17.68
2023-04-11T05:14:56.962Z,17.32
2023-04-11T05:20:02.087Z,16.96
2023-04-11T05:25:09.809Z,17.01
2023-04-11T05:30:14.736Z,17.61
2023-04-11T05:35:23.749Z,19.01
2023-04-11T05:40:29.115Z,19.48
2023-04-11T05:45:32.148Z,19.40
2023-04-11T05:50:35.545Z,20.08
2023-04-11T05:55:38.072Z,20.98
2023-04-11T06:00:42.854Z,21.56
2023-04-11T06:05:45.147Z,22.12
2023-04-11T06:10:48.661Z,22.57
2023-04-11T06:15:52.508Z,22.96
2023-04-11T06:20:54.852Z,23.09
2023-04-11T06:25:58.152Z,22.95
2023-04-11T06:31:01.095Z,23.61
2023-04-11T06:36:06.047Z,23.30
2023-04-11T06:41:09.349Z,23.32
2023-04-11T06:46:12.335Z,23.12
2023-04-11T06:51:15.354Z,22.83
2023-04-11T06:56:18.264Z,23.15
2023-04-11T07:01:28.989Z,23.17
2023-04-11T07:06:32.164Z,23.04
2023-04-11T07:11:37.004Z,22.84
2023-04-11T07:16:40.112Z,22.31
2023-04-11T07:21:43.650Z,22.42
2023-04-11T07:26:48.148Z,21.94
2023-04-11T07:31:51.691Z,21.29
2023-04-11T07:36:58.104Z,20.53
2023-04-11T07:42:00.376Z,20.09
2023-04-11T07:47:04.694Z,20.13
2023-04-11T07:52:08.496Z,19.94
2023-04-11T07:57:11.439Z,19.58
2023-04-11T08:02:14.962Z,19.52
2023-04-11T08:07:17.377Z,19.65
2023-04-11T08:12:19.721Z,19.44
2023-04-11T08:17:28.712Z,19.60
2023-04-11T08:22:34.595Z,19.67
2023-04-11T08:27:40.340Z,19.68
2023-04-11T08:32:43.433Z,19.37
2023-04-11T08:37:49.654Z,18.97
2023-04-11T08:43:00.200Z,18.92
2023-04-11T08:48:05.659Z,18.87
2023-04-11T08:53:09.359Z,19.00
2023-04-11T08:58:15.739Z,18.86
2023-04-11T09:03:19.271Z,18.96
2023-04-11T09:08:22.262Z,19.16
2023-04-11T09:13:27.868Z,19.27
2023-04-11T09:18:38.441Z,19.38
2023-04-11T09:23:41.087Z,19.43
2023-04-11T09:28:53.171Z,19.18
2023-04-11T09:33:58.577Z,19.55
2023-04-11T09:39:18.625Z,19.29
2023-04-11T09:44:36.355Z,19.47
2023-04-11T09:49:42.740Z,19.46
2023-04-11T09:54:46.306Z,19.33
2023-04-11T09:59:49.933Z,19.38
2023-04-11T10:04:55.740Z,19.43
2023-04-11T10:09:59.289Z,19.50
2023-04-11T10:15:11.720Z,19.65
2023-04-11T10:20:45.803Z,19.28
2023-04-11T10:25:56.780Z,19.50
2023-04-11T10:30:59.086Z,19.36
2023-04-11T10:36:12.956Z,19.49
2023-04-11T10:41:28.966Z,19.64
2023-04-11T10:46:31.465Z,19.41
2023-04-11T10:51:35.240Z,19.39
2023-04-11T10:56:45.001Z,19.31
2023-04-11T11:01:57.748Z,19.25
2023-04-11T11:07:01.840Z,19.19
2023-04-11T11:12:16.146Z,19.38
2023-04-11T11:17:19.129Z,19.56
2023-04-11T11:22:26.545Z,19.53
2023-04-11T11:27:29.303Z,19.50
2023-04-11T11:32:33.534Z,19.62
2023-04-11T11:37:37.081Z,19.66
2023-04-11T11:42:40.373Z,19.50
2023-04-11T11:47:47.461Z,19.37
2023-04-11T11:52:50.176Z,19.42
2023-04-11T11:57:53.596Z,19.55
2023-04-11T12:03:00.748Z,19.40
2023-04-11T12:08:09.534Z,19.41
2023-04-11T12:13:16.090Z,19.36
2023-04-11T12:18:22.491Z,19.43
2023-04-11T12:23:25.413Z,19.44
2023-04-11T12:28:29.895Z,19.17
2023-04-11T12:33:32.908Z,19.30
2023-04-11T12:38:35.983Z,19.45
2023-04-11T12:43:39.325Z,19.49
2023-04-11T12:48:41.951Z,19.30
2023-04-11T12:53:46.826Z,19.26
2023-04-11T12:58:49.438Z,19.50
2023-04-11T13:03:53.234Z,19.41
2023-04-11T13:08:58.273Z,19.48
2023-04-11T13:14:02.342Z,19.35
2023-04-11T13:19:05.121Z,19.31
2023-04-11T13:24:09.536Z,19.42
2023-04-11T13:29:12.581Z,19.45
2023-04-11T13:34:16.061Z,19.45
2023-04-11T13:39:18.827Z,19.38
2023-04-11T13:44:21.338Z,19.41
2023-04-11T13:49:25.089Z,19.36
2023-04-11T13:54:28.117Z,19.36
2023-04-11T13:59:31.082Z,19.24
2023-04-11T14:04:33.513Z,19.23
2023-04-11T14:09:37.825Z,18.97
2023-04-11T14:14:40.249Z,19.13
2023-04-11T14:19:43.368Z,19.11
2023-04-11T14:24:46.455Z,18.77
2023-04-11T14:29:49.097Z,18.84
2023-04-11T14:34:53.394Z,18.88
2023-04-11T14:39:56.021Z,18.85
2023-04-11T14:44:58.868Z,18.83
2023-04-11T14:50:02.118Z,18.75
2023-04-11T14:55:06.804Z,18.57
2023-04-11T15:00:15.700Z,18.48
2023-04-11T15:05:19.782Z,18.50
2023-04-11T15:10:25.392Z,18.34
2023-04-11T15:15:27.799Z,18.26
2023-04-11T15:20:30.105Z,18.15
2023-04-11T15:25:32.498Z,18.05
2023-04-11T15:30:35.258Z,17.92
2023-04-11T15:35:38.646Z,17.82
2023-04-11T15:40:41.520Z,17.62
2023-04-11T15:45:45.126Z,17.44
2023-04-11T15:50:47.604Z,17.26
2023-04-11T15:55:50.323Z,17.23
2023-04-11T16:00:55.048Z,16.99
2023-04-11T16:06:01.316Z,16.98
2023-04-11T16:11:03.801Z,16.75
2023-04-11T16:16:09.614Z,16.81
2023-04-11T16:21:14.030Z,16.68
2023-04-11T16:26:17.641Z,16.63
2023-04-11T16:31:24.781Z,16.53
2023-04-11T16:36:27.600Z,16.43
2023-04-11T16:41:30.179Z,16.34
2023-04-11T16:46:32.970Z,16.15
2023-04-11T16:51:38.201Z,16.11
2023-04-11T16:56:40.897Z,15.99
2023-04-11T17:01:43.699Z,15.97
2023-04-11T17:06:46.589Z,15.90
2023-04-11T17:11:48.810Z,15.53
2023-04-11T17:16:52.042Z,15.62
2023-04-11T17:21:54.431Z,15.56
2023-04-11T17:26:57.388Z,15.47
2023-04-11T17:31:59.629Z,15.21
2023-04-11T17:37:02.403Z,15.19
2023-04-11T17:42:05.178Z,14.92
2023-04-11T17:47:07.577Z,14.79
2023-04-11T17:52:10.150Z,14.62
2023-04-11T17:57:12.481Z,14.39
2023-04-11T18:02:15.107Z,14.29
2023-04-11T18:07:18.339Z,14.20
2023-04-11T18:12:21.058Z,14.21
2023-04-11T18:17:36.638Z,13.99
2023-04-11T18:22:41.081Z,14.09
2023-04-11T18:27:43.524Z,13.93
2023-04-11T18:32:50.703Z,13.65
2023-04-11T18:37:54.277Z,13.70
2023-04-11T18:42:57.623Z,13.46
2023-04-11T18:48:00.941Z,13.46
2023-04-11T18:53:06.157Z,13.31
2023-04-11T18:58:11.723Z,13.19
2023-04-11T19:03:16.666Z,13.18
2023-04-11T19:08:19.322Z,13.05
2023-04-11T19:13:22.313Z,13.01
2023-04-11T19:18:24.720Z,12.92
2023-04-11T19:23:27.099Z,12.93
2023-04-11T19:28:29.423Z,12.79
2023-04-11T19:33:32.526Z,12.71
2023-04-11T19:38:34.931Z,12.72
2023-04-11T19:43:37.368Z,12.66
2023-04-11T19:48:40.939Z,12.68
2023-04-11T19:53:43.839Z,12.60
2023-04-11T19:58:47.416Z,12.60
2023-04-11T20:03:53.758Z,12.66
2023-04-11T20:08:57.225Z,12.63
2023-04-11T20:13:59.933Z,12.58
2023-04-11T20:19:03.206Z,12.60
2023-04-11T20:24:06.192Z,12.67
2023-04-11T20:29:08.987Z,12.70
2023-04-11T20:34:12.298Z,12.77
2023-04-11T20:39:15.081Z,12.73
2023-04-11T20:44:19.128Z,12.65
2023-04-11T20:49:21.674Z,12.73
2023-04-11T20:54:24.080Z,12.69
2023-04-11T20:59:27.399Z,12.73
2023-04-11T21:04:29.748Z,12.67
2023-04-11T21:09:33.506Z,12.80
2023-04-11T21:14:37.200Z,12.79
2023-04-11T21:19:39.935Z,12.68
2023-04-11T21:24:42.612Z,12.70
2023-04-11T21:29:44.866Z,12.58
2023-04-11T21:34:47.716Z,12.79
2023-04-11T21:39:50.562Z,12.52
2023-04-11T21:44:53.514Z,12.71
2023-04-11T21:49:56.312Z,12.72
2023-04-11T21:54:59.104Z,12.75
2023-04-11T22:00:02.237Z,12.70
2023-04-11T22:05:14.177Z,12.78
2023-04-11T22:10:24.101Z,12.81
2023-04-11T22:15:33.303Z,12.83
2023-04-11T22:20:46.301Z,12.80
2023-04-11T22:25:58.177Z,12.83
2023-04-11T22:36:25.504Z,12.82
2023-04-11T22:41:28.437Z,12.90
2023-04-11T22:46:39.054Z,12.89
2023-04-11T22:51:42.480Z,12.84
2023-04-11T22:56:44.878Z,12.66
2023-04-11T23:01:48.006Z,12.85
2023-04-11T23:06:51.719Z,12.73
2023-04-11T23:11:54.026Z,12.54
2023-04-11T23:16:58.010Z,12.45
2023-04-11T23:22:00.475Z,12.48
2023-04-11T23:27:04.541Z,12.27
2023-04-11T23:32:07.823Z,12.38
2023-04-11T23:37:11.293Z,12.17
2023-04-11T23:42:14.243Z,12.36
2023-04-11T23:47:17.154Z,12.33
2023-04-11T23:52:20.983Z,12.16
2023-04-11T23:57:24.133Z,12.18
